sensor_id;sensor_type;location;lat;lon;timestamp;temperature;humidity
27741;DHT22;15134;48.768;9.184;2023-03-19T00:01:05;12.80;99.90
27741;DHT22;15134;48.768;9.184;2023-03-19T00:03:32;12.80;99.90
27741;DHT22;15134;48.768;9.184;2023-03-19T00:05:57;12.80;99.90
27741;DHT22;15134;48.768;9.184;2023-03-19T00:08:23;12.80;99.90
27741;DHT22;15134;48.768;9.184;2023-03-19T00:10:50;12.80;99.90
27741;DHT22;15134;48.768;9.184;2023-03-19T00:13:16;12.70;99.90
27741;DHT22;15134;48.768;9.184;2023-03-19T00:15:42;12.60;99.90
27741;DHT22;15134;48.768;9.184;2023-03-19T00:18:07;12.60;99.90
27741;DHT22;15134;48.768;9.184;2023-03-19T00:20:33;12.60;99.90
27741;DHT22;15134;48.768;9.184;2023-03-19T00:22:59;12.70;99.90
27741;DHT22;15134;48.768;9.184;2023-03-19T00:25:25;12.60;99.90
27741;DHT22;15134;48.768;9.184;2023-03-19T00:27:51;12.50;99.90
27741;DHT22;15134;48.768;9.184;2023-03-19T00:30:19;12.50;99.90
27741;DHT22;15134;48.768;9.184;2023-03-19T00:32:45;12.40;99.90
27741;DHT22;15134;48.768;9.184;2023-03-19T00:35:10;12.40;99.90
27741;DHT22;15134;48.768;9.184;2023-03-19T00:37:38;12.50;99.90
27741;DHT22;15134;48.768;9.184;2023-03-19T00:40:07;12.50;99.90
27741;DHT22;15134;48.768;9.184;2023-03-19T00:42:34;12.50;99.90
27741;DHT22;15134;48.768;9.184;2023-03-19T00:45:01;12.40;99.90
27741;DHT22;15134;48.768;9.184;2023-03-19T00:47:26;12.40;99.90
27741;DHT22;15134;48.768;9.184;2023-03-19T00:49:52;12.40;99.90
27741;DHT22;15134;48.768;9.184;2023-03-19T00:52:18;12.30;99.90
27741;DHT22;15134;48.768;9.184;2023-03-19T00:54:44;12.20;99.90
27741;DHT22;15134;48.768;9.184;2023-03-19T00:57:10;12.20;99.90
27741;DHT22;15134;48.768;9.184;2023-03-19T00:59:35;12.30;99.90
27741;DHT22;15134;48.768;9.184;2023-03-19T01:02:02;12.40;99.90
27741;DHT22;15134;48.768;9.184;2023-03-19T01:04:28;12.40;99.90
27741;DHT22;15134;48.768;9.184;2023-03-19T01:06:54;12.50;99.90
27741;DHT22;15134;48.768;9.184;2023-03-19T01:09:20;12.60;99.90
27741;DHT22;15134;48.768;9.184;2023-03-19T01:11:45;12.60;99.90
27741;DHT22;15134;48.768;9.184;2023-03-19T01:14:11;12.70;99.90
27741;DHT22;15134;48.768;9.184;2023-03-19T01:16:37;12.70;99.90
27741;DHT22;15134;48.768;9.184;2023-03-19T01:19:04;12.70;99.90
27741;DHT22;15134;48.768;9.184;2023-03-19T01:21:31;12.70;99.90
27741;DHT22;15134;48.768;9.184;2023-03-19T01:23:57;12.70;99.90
27741;DHT22;15134;48.768;9.184;2023-03-19T01:26:24;12.70;99.90
27741;DHT22;15134;48.768;9.184;2023-03-19T01:28:54;12.60;99.90
27741;DHT22;15134;48.768;9.184;2023-03-19T01:31:21;12.60;99.90
27741;DHT22;15134;48.768;9.184;2023-03-19T01:33:49;12.60;99.90
27741;DHT22;15134;48.768;9.184;2023-03-19T01:36:24;12.60;99.90
27741;DHT22;15134;48.768;9.184;2023-03-19T01:38:58;12.70;99.90
27741;DHT22;15134;48.768;9.184;2023-03-19T01:41:23;12.70;99.90
27741;DHT22;15134;48.768;9.184;2023-03-19T01:43:51;12.70;99.90
27741;DHT22;15134;48.768;9.184;2023-03-19T01:46:37;12.70;99.90
27741;DHT22;15134;48.768;9.184;2023-03-19T01:49:26;12.60;99.90
27741;DHT22;15134;48.768;9.184;2023-03-19T01:52:16;12.60;99.90
27741;DHT22;15134;48.768;9.184;2023-03-19T01:55:02;12.60;99.90
27741;DHT22;15134;48.768;9.184;2023-03-19T01:57:48;12.70;99.90
27741;DHT22;15134;48.768;9.184;2023-03-19T02:00:40;12.70;99.90
27741;DHT22;15134;48.768;9.184;2023-03-19T02:03:06;12.70;99.90
27741;DHT22;15134;48.768;9.184;2023-03-19T02:06:04;12.80;99.90
27741;DHT22;15134;48.768;9.184;2023-03-19T02:08:31;12.80;99.90
27741;DHT22;15134;48.768;9.184;2023-03-19T02:10:58;12.80;99.90
27741;DHT22;15134;48.768;9.184;2023-03-19T02:13:26;12.80;99.90
27741;DHT22;15134;48.768;9.184;2023-03-19T02:15:53;12.80;99.90
27741;DHT22;15134;48.768;9.184;2023-03-19T02:18:20;12.80;99.90
27741;DHT22;15134;48.768;9.184;2023-03-19T02:23:48;12.80;99.90
27741;DHT22;15134;48.768;9.184;2023-03-19T02:26:18;12.80;99.90
27741;DHT22;15134;48.768;9.184;2023-03-19T02:28:49;12.80;99.90
27741;DHT22;15134;48.768;9.184;2023-03-19T02:31:21;12.80;99.90
27741;DHT22;15134;48.768;9.184;2023-03-19T02:33:58;12.80;99.90
27741;DHT22;15134;48.768;9.184;2023-03-19T02:36:36;12.80;99.90
27741;DHT22;15134;48.768;9.184;2023-03-19T02:39:06;12.70;99.90
27741;DHT22;15134;48.768;9.184;2023-03-19T02:41:33;12.70;99.90
27741;DHT22;15134;48.768;9.184;2023-03-19T02:44:02;12.70;99.90
27741;DHT22;15134;48.768;9.184;2023-03-19T02:46:29;12.60;99.90
27741;DHT22;15134;48.768;9.184;2023-03-19T02:48:55;12.50;99.90
27741;DHT22;15134;48.768;9.184;2023-03-19T02:51:20;12.50;99.90
27741;DHT22;15134;48.768;9.184;2023-03-19T02:53:46;12.40;99.90
27741;DHT22;15134;48.768;9.184;2023-03-19T02:56:12;12.50;99.90
27741;DHT22;15134;48.768;9.184;2023-03-19T02:58:38;12.40;99.90
27741;DHT22;15134;48.768;9.184;2023-03-19T03:01:04;12.40;99.90
27741;DHT22;15134;48.768;9.184;2023-03-19T03:03:30;12.50;99.90
27741;DHT22;15134;48.768;9.184;2023-03-19T03:05:57;12.40;99.90
27741;DHT22;15134;48.768;9.184;2023-03-19T03:08:22;12.00;99.90
27741;DHT22;15134;48.768;9.184;2023-03-19T03:10:48;11.80;99.90
27741;DHT22;15134;48.768;9.184;2023-03-19T03:13:14;11.90;99.90
27741;DHT22;15134;48.768;9.184;2023-03-19T03:15:40;11.90;99.90
27741;DHT22;15134;48.768;9.184;2023-03-19T03:18:06;12.00;99.90
27741;DHT22;15134;48.768;9.184;2023-03-19T03:20:31;12.00;99.90
27741;DHT22;15134;48.768;9.184;2023-03-19T03:22:57;12.10;99.90
27741;DHT22;15134;48.768;9.184;2023-03-19T03:25:24;12.20;99.90
27741;DHT22;15134;48.768;9.184;2023-03-19T03:27:49;12.20;99.90
27741;DHT22;15134;48.768;9.184;2023-03-19T03:30:15;12.10;99.90
27741;DHT22;15134;48.768;9.184;2023-03-19T03:32:41;12.10;99.90
27741;DHT22;15134;48.768;9.184;2023-03-19T03:35:07;12.00;99.90
27741;DHT22;15134;48.768;9.184;2023-03-19T03:37:34;11.80;99.90
27741;DHT22;15134;48.768;9.184;2023-03-19T03:40:01;11.90;99.90
27741;DHT22;15134;48.768;9.184;2023-03-19T03:42:31;11.90;99.90
27741;DHT22;15134;48.768;9.184;2023-03-19T03:44:57;12.00;99.90
27741;DHT22;15134;48.768;9.184;2023-03-19T03:47:23;12.00;99.90
27741;DHT22;15134;48.768;9.184;2023-03-19T03:49:49;12.00;99.90
27741;DHT22;15134;48.768;9.184;2023-03-19T03:52:15;11.90;99.90
27741;DHT22;15134;48.768;9.184;2023-03-19T03:54:40;12.00;99.90
27741;DHT22;15134;48.768;9.184;2023-03-19T03:57:06;12.00;99.90
27741;DHT22;15134;48.768;9.184;2023-03-19T03:59:32;12.10;99.90
27741;DHT22;15134;48.768;9.184;2023-03-19T04:01:58;12.10;99.90
27741;DHT22;15134;48.768;9.184;2023-03-19T04:04:24;12.10;99.90
27741;DHT22;15134;48.768;9.184;2023-03-19T04:06:50;12.10;99.90
27741;DHT22;15134;48.768;9.184;2023-03-19T04:09:32;12.00;99.90
27741;DHT22;15134;48.768;9.184;2023-03-19T04:11:58;12.00;99.90
27741;DHT22;15134;48.768;9.184;2023-03-19T04:14:25;12.10;99.90
27741;DHT22;15134;48.768;9.184;2023-03-19T04:16:51;12.10;99.90
27741;DHT22;15134;48.768;9.184;2023-03-19T04:19:17;12.10;99.90
27741;DHT22;15134;48.768;9.184;2023-03-19T04:21:43;12.10;99.90
27741;DHT22;15134;48.768;9.184;2023-03-19T04:24:10;12.00;99.90
27741;DHT22;15134;48.768;9.184;2023-03-19T04:26:37;12.10;99.90
27741;DHT22;15134;48.768;9.184;2023-03-19T04:29:03;12.00;99.90
27741;DHT22;15134;48.768;9.184;2023-03-19T04:31:29;12.00;99.90
27741;DHT22;15134;48.768;9.184;2023-03-19T04:33:54;12.00;99.90
27741;DHT22;15134;48.768;9.184;2023-03-19T04:36:20;11.90;99.90
27741;DHT22;15134;48.768;9.184;2023-03-19T04:38:47;11.90;99.90
27741;DHT22;15134;48.768;9.184;2023-03-19T04:41:13;12.00;99.90
27741;DHT22;15134;48.768;9.184;2023-03-19T04:43:50;12.00;99.90
27741;DHT22;15134;48.768;9.184;2023-03-19T04:46:16;12.00;99.90
27741;DHT22;15134;48.768;9.184;2023-03-19T04:48:41;12.10;99.90
27741;DHT22;15134;48.768;9.184;2023-03-19T04:51:08;12.00;99.90
27741;DHT22;15134;48.768;9.184;2023-03-19T04:53:35;12.00;99.90
27741;DHT22;15134;48.768;9.184;2023-03-19T04:56:03;12.10;99.90
27741;DHT22;15134;48.768;9.184;2023-03-19T04:58:29;12.10;99.90
27741;DHT22;15134;48.768;9.184;2023-03-19T05:00:59;12.10;99.90
27741;DHT22;15134;48.768;9.184;2023-03-19T05:03:45;12.10;99.90
27741;DHT22;15134;48.768;9.184;2023-03-19T05:06:11;12.10;99.90
27741;DHT22;15134;48.768;9.184;2023-03-19T05:08:37;12.10;99.90
27741;DHT22;15134;48.768;9.184;2023-03-19T05:11:02;12.00;99.90
27741;DHT22;15134;48.768;9.184;2023-03-19T05:13:36;12.00;99.90
27741;DHT22;15134;48.768;9.184;2023-03-19T05:16:02;11.90;99.90
27741;DHT22;15134;48.768;9.184;2023-03-19T05:18:28;11.80;99.90
27741;DHT22;15134;48.768;9.184;2023-03-19T05:20:54;11.90;99.90
27741;DHT22;15134;48.768;9.184;2023-03-19T05:23:21;11.80;99.90
27741;DHT22;15134;48.768;9.184;2023-03-19T05:25:57;11.70;99.90
27741;DHT22;15134;48.768;9.184;2023-03-19T05:28:45;11.80;99.90
27741;DHT22;15134;48.768;9.184;2023-03-19T05:31:11;11.80;99.90
27741;DHT22;15134;48.768;9.184;2023-03-19T05:33:43;11.70;99.90
27741;DHT22;15134;48.768;9.184;2023-03-19T05:36:08;11.60;99.90
27741;DHT22;15134;48.768;9.184;2023-03-19T05:39:00;11.60;99.90
27741;DHT22;15134;48.768;9.184;2023-03-19T05:41:32;11.60;99.90
27741;DHT22;15134;48.768;9.184;2023-03-19T05:44:02;11.50;99.90
27741;DHT22;15134;48.768;9.184;2023-03-19T05:46:57;11.50;99.90
27741;DHT22;15134;48.768;9.184;2023-03-19T05:49:26;11.50;99.90
27741;DHT22;15134;48.768;9.184;2023-03-19T05:51:51;11.60;99.90
27741;DHT22;15134;48.768;9.184;2023-03-19T05:54:17;11.50;99.90
27741;DHT22;15134;48.768;9.184;2023-03-19T05:56:59;11.50;99.90
27741;DHT22;15134;48.768;9.184;2023-03-19T05:59:36;11.50;99.90
27741;DHT22;15134;48.768;9.184;2023-03-19T06:02:28;11.60;99.90
27741;DHT22;15134;48.768;9.184;2023-03-19T06:05:09;11.70;99.90
27741;DHT22;15134;48.768;9.184;2023-03-19T06:07:35;11.70;99.90
27741;DHT22;15134;48.768;9.184;2023-03-19T06:10:04;11.70;99.90
27741;DHT22;15134;48.768;9.184;2023-03-19T06:12:30;11.70;99.90
27741;DHT22;15134;48.768;9.184;2023-03-19T06:15:01;11.70;99.90
27741;DHT22;15134;48.768;9.184;2023-03-19T06:17:54;11.70;99.90
27741;DHT22;15134;48.768;9.184;2023-03-19T06:20:19;11.70;99.90
27741;DHT22;15134;48.768;9.184;2023-03-19T06:22:46;11.70;99.90
27741;DHT22;15134;48.768;9.184;2023-03-19T06:25:12;11.70;99.90
27741;DHT22;15134;48.768;9.184;2023-03-19T06:27:37;11.80;99.90
27741;DHT22;15134;48.768;9.184;2023-03-19T06:30:29;11.80;99.90
27741;DHT22;15134;48.768;9.184;2023-03-19T06:32:58;11.90;99.90
27741;DHT22;15134;48.768;9.184;2023-03-19T06:35:24;11.90;99.90
27741;DHT22;15134;48.768;9.184;2023-03-19T06:37:51;11.90;99.90
27741;DHT22;15134;48.768;9.184;2023-03-19T06:40:17;11.80;99.90
27741;DHT22;15134;48.768;9.184;2023-03-19T06:42:44;11.90;99.90
27741;DHT22;15134;48.768;9.184;2023-03-19T06:45:13;12.00;99.90
27741;DHT22;15134;48.768;9.184;2023-03-19T06:47:47;12.00;99.90
27741;DHT22;15134;48.768;9.184;2023-03-19T06:50:14;11.90;99.90
27741;DHT22;15134;48.768;9.184;2023-03-19T06:52:41;11.90;99.90
27741;DHT22;15134;48.768;9.184;2023-03-19T06:55:07;12.00;99.90
27741;DHT22;15134;48.768;9.184;2023-03-19T06:57:34;12.10;99.90
27741;DHT22;15134;48.768;9.184;2023-03-19T07:00:00;12.10;99.90
27741;DHT22;15134;48.768;9.184;2023-03-19T07:02:26;12.20;99.90
27741;DHT22;15134;48.768;9.184;2023-03-19T07:04:52;12.30;99.90
27741;DHT22;15134;48.768;9.184;2023-03-19T07:07:18;12.40;99.90
27741;DHT22;15134;48.768;9.184;2023-03-19T07:09:44;12.40;99.90
27741;DHT22;15134;48.768;9.184;2023-03-19T07:12:10;12.50;99.90
27741;DHT22;15134;48.768;9.184;2023-03-19T07:14:35;12.40;99.90
27741;DHT22;15134;48.768;9.184;2023-03-19T07:17:01;12.50;99.90
27741;DHT22;15134;48.768;9.184;2023-03-19T07:19:27;12.50;99.90
27741;DHT22;15134;48.768;9.184;2023-03-19T07:21:52;12.50;99.90
27741;DHT22;15134;48.768;9.184;2023-03-19T07:24:18;12.60;99.90
27741;DHT22;15134;48.768;9.184;2023-03-19T07:26:44;12.60;99.90
27741;DHT22;15134;48.768;9.184;2023-03-19T07:29:11;12.60;99.90
27741;DHT22;15134;48.768;9.184;2023-03-19T07:31:36;12.60;99.90
27741;DHT22;15134;48.768;9.184;2023-03-19T07:34:03;12.60;99.90
27741;DHT22;15134;48.768;9.184;2023-03-19T07:36:29;12.70;99.90
27741;DHT22;15134;48.768;9.184;2023-03-19T07:38:55;12.70;99.90
27741;DHT22;15134;48.768;9.184;2023-03-19T07:41:22;12.70;99.90
27741;DHT22;15134;48.768;9.184;2023-03-19T07:43:48;12.70;99.90
27741;DHT22;15134;48.768;9.184;2023-03-19T07:46:13;12.70;99.90
27741;DHT22;15134;48.768;9.184;2023-03-19T07:48:39;12.70;99.90
27741;DHT22;15134;48.768;9.184;2023-03-19T07:51:05;12.70;99.90
27741;DHT22;15134;48.768;9.184;2023-03-19T07:53:31;12.70;99.90
27741;DHT22;15134;48.768;9.184;2023-03-19T07:55:57;12.80;99.90
27741;DHT22;15134;48.768;9.184;2023-03-19T07:58:23;12.80;99.90
27741;DHT22;15134;48.768;9.184;2023-03-19T08:00:49;12.80;99.90
27741;DHT22;15134;48.768;9.184;2023-03-19T08:03:15;12.80;99.90
27741;DHT22;15134;48.768;9.184;2023-03-19T08:05:41;12.90;99.90
27741;DHT22;15134;48.768;9.184;2023-03-19T08:08:07;12.80;99.90
27741;DHT22;15134;48.768;9.184;2023-03-19T08:10:33;12.80;99.90
27741;DHT22;15134;48.768;9.184;2023-03-19T08:12:59;12.90;99.90
27741;DHT22;15134;48.768;9.184;2023-03-19T08:15:25;12.90;99.90
27741;DHT22;15134;48.768;9.184;2023-03-19T08:18:02;13.00;99.90
27741;DHT22;15134;48.768;9.184;2023-03-19T08:20:29;13.10;99.90
27741;DHT22;15134;48.768;9.184;2023-03-19T08:22:56;13.20;99.90
27741;DHT22;15134;48.768;9.184;2023-03-19T08:25:23;13.30;99.90
27741;DHT22;15134;48.768;9.184;2023-03-19T08:27:49;13.50;99.90
27741;DHT22;15134;48.768;9.184;2023-03-19T08:30:15;13.60;99.90
27741;DHT22;15134;48.768;9.184;2023-03-19T08:32:42;13.70;99.90
27741;DHT22;15134;48.768;9.184;2023-03-19T08:35:11;13.60;99.90
27741;DHT22;15134;48.768;9.184;2023-03-19T08:37:37;13.60;99.90
27741;DHT22;15134;48.768;9.184;2023-03-19T08:40:03;13.70;99.90
27741;DHT22;15134;48.768;9.184;2023-03-19T08:42:29;13.70;99.90
27741;DHT22;15134;48.768;9.184;2023-03-19T08:44:55;13.70;99.90
27741;DHT22;15134;48.768;9.184;2023-03-19T08:47:21;13.80;99.90
27741;DHT22;15134;48.768;9.184;2023-03-19T08:49:49;13.70;99.90
27741;DHT22;15134;48.768;9.184;2023-03-19T08:52:16;13.70;99.90
27741;DHT22;15134;48.768;9.184;2023-03-19T08:54:42;13.90;99.90
27741;DHT22;15134;48.768;9.184;2023-03-19T08:57:08;14.00;99.90
27741;DHT22;15134;48.768;9.184;2023-03-19T08:59:34;14.20;99.90
27741;DHT22;15134;48.768;9.184;2023-03-19T09:02:01;14.30;99.90
27741;DHT22;15134;48.768;9.184;2023-03-19T09:04:26;14.50;99.90
27741;DHT22;15134;48.768;9.184;2023-03-19T09:06:52;14.60;99.90
27741;DHT22;15134;48.768;9.184;2023-03-19T09:09:19;14.70;99.90
27741;DHT22;15134;48.768;9.184;2023-03-19T09:11:45;15.00;99.90
27741;DHT22;15134;48.768;9.184;2023-03-19T09:14:12;15.40;99.90
27741;DHT22;15134;48.768;9.184;2023-03-19T09:16:38;15.70;99.90
27741;DHT22;15134;48.768;9.184;2023-03-19T09:19:05;16.00;99.90
27741;DHT22;15134;48.768;9.184;2023-03-19T09:21:30;16.20;99.90
27741;DHT22;15134;48.768;9.184;2023-03-19T09:23:56;16.40;99.90
27741;DHT22;15134;48.768;9.184;2023-03-19T09:26:22;16.60;99.90
27741;DHT22;15134;48.768;9.184;2023-03-19T09:28:48;17.00;99.90
27741;DHT22;15134;48.768;9.184;2023-03-19T09:31:13;17.30;99.90
27741;DHT22;15134;48.768;9.184;2023-03-19T09:33:39;17.60;99.90
27741;DHT22;15134;48.768;9.184;2023-03-19T09:36:05;17.70;99.90
27741;DHT22;15134;48.768;9.184;2023-03-19T09:38:31;17.90;99.90
27741;DHT22;15134;48.768;9.184;2023-03-19T09:41:29;18.10;99.90
27741;DHT22;15134;48.768;9.184;2023-03-19T09:44:03;18.00;99.90
27741;DHT22;15134;48.768;9.184;2023-03-19T09:54:32;18.00;99.90
27741;DHT22;15134;48.768;9.184;2023-03-19T09:56:59;18.10;99.90
27741;DHT22;15134;48.768;9.184;2023-03-19T09:59:26;17.80;99.90
27741;DHT22;15134;48.768;9.184;2023-03-19T10:04:45;18.20;99.90
27741;DHT22;15134;48.768;9.184;2023-03-19T10:15:30;18.50;99.90
27741;DHT22;15134;48.768;9.184;2023-03-19T10:23:49;18.50;99.90
27741;DHT22;15134;48.768;9.184;2023-03-19T10:26:23;18.60;99.90
27741;DHT22;15134;48.768;9.184;2023-03-19T10:29:03;18.60;99.90
27741;DHT22;15134;48.768;9.184;2023-03-19T10:31:50;18.50;99.90
27741;DHT22;15134;48.768;9.184;2023-03-19T10:34:39;18.40;99.90
27741;DHT22;15134;48.768;9.184;2023-03-19T10:37:14;18.20;99.90
27741;DHT22;15134;48.768;9.184;2023-03-19T10:39:45;18.10;99.90
27741;DHT22;15134;48.768;9.184;2023-03-19T10:42:35;18.00;99.90
27741;DHT22;15134;48.768;9.184;2023-03-19T10:45:27;18.00;99.90
27741;DHT22;15134;48.768;9.184;2023-03-19T10:47:59;18.10;99.90
27741;DHT22;15134;48.768;9.184;2023-03-19T10:50:37;18.20;99.90
27741;DHT22;15134;48.768;9.184;2023-03-19T10:53:34;18.30;99.90
27741;DHT22;15134;48.768;9.184;2023-03-19T10:56:04;18.40;99.90
27741;DHT22;15134;48.768;9.184;2023-03-19T10:58:32;18.60;99.90
27741;DHT22;15134;48.768;9.184;2023-03-19T11:01:07;18.60;99.90
27741;DHT22;15134;48.768;9.184;2023-03-19T11:03:51;18.70;99.90
27741;DHT22;15134;48.768;9.184;2023-03-19T11:08:58;18.60;99.90
27741;DHT22;15134;48.768;9.184;2023-03-19T11:11:44;18.70;99.90
27741;DHT22;15134;48.768;9.184;2023-03-19T11:14:37;18.70;99.90
27741;DHT22;15134;48.768;9.184;2023-03-19T11:19:38;18.70;99.90
27741;DHT22;15134;48.768;9.184;2023-03-19T11:22:16;18.70;99.90
27741;DHT22;15134;48.768;9.184;2023-03-19T11:25:15;18.70;99.90
27741;DHT22;15134;48.768;9.184;2023-03-19T11:28:18;18.70;99.90
27741;DHT22;15134;48.768;9.184;2023-03-19T11:39:29;18.70;99.90
27741;DHT22;15134;48.768;9.184;2023-03-19T11:44:52;18.70;99.90
27741;DHT22;15134;48.768;9.184;2023-03-19T11:47:33;18.70;99.90
27741;DHT22;15134;48.768;9.184;2023-03-19T11:50:48;18.60;99.90
27741;DHT22;15134;48.768;9.184;2023-03-19T11:59:05;18.40;99.90
27741;DHT22;15134;48.768;9.184;2023-03-19T12:12:25;18.70;99.90
27741;DHT22;15134;48.768;9.184;2023-03-19T12:20:36;18.80;99.90
27741;DHT22;15134;48.768;9.184;2023-03-19T12:23:15;18.60;99.90
27741;DHT22;15134;48.768;9.184;2023-03-19T12:26:04;18.50;99.90
27741;DHT22;15134;48.768;9.184;2023-03-19T12:28:34;18.40;99.90
27741;DHT22;15134;48.768;9.184;2023-03-19T12:31:18;18.30;99.90
27741;DHT22;15134;48.768;9.184;2023-03-19T12:34:02;18.20;99.90
27741;DHT22;15134;48.768;9.184;2023-03-19T12:36:40;18.20;99.90
27741;DHT22;15134;48.768;9.184;2023-03-19T12:39:24;18.20;99.90
27741;DHT22;15134;48.768;9.184;2023-03-19T12:41:51;18.20;99.90
27741;DHT22;15134;48.768;9.184;2023-03-19T12:44:49;18.30;99.90
27741;DHT22;15134;48.768;9.184;2023-03-19T12:47:25;18.30;99.90
27741;DHT22;15134;48.768;9.184;2023-03-19T12:49:53;18.40;99.90
27741;DHT22;15134;48.768;9.184;2023-03-19T12:52:28;18.40;99.90
27741;DHT22;15134;48.768;9.184;2023-03-19T12:55:20;18.50;99.90
27741;DHT22;15134;48.768;9.184;2023-03-19T12:57:53;18.50;99.90
27741;DHT22;15134;48.768;9.184;2023-03-19T13:00:52;18.60;99.90
27741;DHT22;15134;48.768;9.184;2023-03-19T13:03:32;18.40;99.90
27741;DHT22;15134;48.768;9.184;2023-03-19T13:09:13;18.10;99.90
27741;DHT22;15134;48.768;9.184;2023-03-19T13:11:59;17.90;99.90
27741;DHT22;15134;48.768;9.184;2023-03-19T13:19:49;16.40;99.90
27741;DHT22;15134;48.768;9.184;2023-03-19T13:22:25;15.90;99.90
27741;DHT22;15134;48.768;9.184;2023-03-19T13:24:53;15.70;99.90
27741;DHT22;15134;48.768;9.184;2023-03-19T13:27:31;15.60;99.90
27741;DHT22;15134;48.768;9.184;2023-03-19T13:37:50;15.60;99.90
27741;DHT22;15134;48.768;9.184;2023-03-19T13:57:01;16.60;99.90
27741;DHT22;15134;48.768;9.184;2023-03-19T13:59:37;16.70;99.90
27741;DHT22;15134;48.768;9.184;2023-03-19T14:04:59;16.70;99.90
27741;DHT22;15134;48.768;9.184;2023-03-19T14:07:28;16.60;99.90
27741;DHT22;15134;48.768;9.184;2023-03-19T14:12:35;16.50;99.90
27741;DHT22;15134;48.768;9.184;2023-03-19T14:15:22;16.40;99.90
27741;DHT22;15134;48.768;9.184;2023-03-19T14:18:00;16.40;99.90
27741;DHT22;15134;48.768;9.184;2023-03-19T14:20:32;16.30;99.90
27741;DHT22;15134;48.768;9.184;2023-03-19T14:28:44;16.30;99.90
27741;DHT22;15134;48.768;9.184;2023-03-19T14:33:57;16.30;99.90
27741;DHT22;15134;48.768;9.184;2023-03-19T14:36:24;16.40;99.90
27741;DHT22;15134;48.768;9.184;2023-03-19T14:39:01;16.40;99.90
27741;DHT22;15134;48.768;9.184;2023-03-19T14:41:32;16.50;99.90
27741;DHT22;15134;48.768;9.184;2023-03-19T14:44:12;16.50;99.90
27741;DHT22;15134;48.768;9.184;2023-03-19T14:52:27;16.50;99.90
27741;DHT22;15134;48.768;9.184;2023-03-19T14:54:59;16.50;99.90
27741;DHT22;15134;48.768;9.184;2023-03-19T14:57:30;16.50;99.90
27741;DHT22;15134;48.768;9.184;2023-03-19T15:00:00;16.50;99.90
27741;DHT22;15134;48.768;9.184;2023-03-19T15:02:42;16.40;99.90
27741;DHT22;15134;48.768;9.184;2023-03-19T15:05:16;16.20;99.90
27741;DHT22;15134;48.768;9.184;2023-03-19T15:07:45;16.10;99.90
27741;DHT22;15134;48.768;9.184;2023-03-19T15:10:17;16.00;99.90
27741;DHT22;15134;48.768;9.184;2023-03-19T15:16:05;15.90;99.90
27741;DHT22;15134;48.768;9.184;2023-03-19T15:18:36;15.70;99.90
27741;DHT22;15134;48.768;9.184;2023-03-19T15:21:03;15.50;99.90
27741;DHT22;15134;48.768;9.184;2023-03-19T15:23:29;15.40;99.90
27741;DHT22;15134;48.768;9.184;2023-03-19T15:25:58;15.40;99.90
27741;DHT22;15134;48.768;9.184;2023-03-19T15:28:31;15.40;99.90
27741;DHT22;15134;48.768;9.184;2023-03-19T15:31:01;15.50;99.90
27741;DHT22;15134;48.768;9.184;2023-03-19T15:33:35;15.40;99.90
27741;DHT22;15134;48.768;9.184;2023-03-19T15:36:06;15.30;99.90
27741;DHT22;15134;48.768;9.184;2023-03-19T15:38:54;15.30;99.90
27741;DHT22;15134;48.768;9.184;2023-03-19T15:41:28;15.30;99.90
27741;DHT22;15134;48.768;9.184;2023-03-19T15:43:55;15.20;99.90
27741;DHT22;15134;48.768;9.184;2023-03-19T15:46:27;15.10;99.90
27741;DHT22;15134;48.768;9.184;2023-03-19T15:49:10;14.90;99.90
27741;DHT22;15134;48.768;9.184;2023-03-19T15:51:36;14.80;99.90
27741;DHT22;15134;48.768;9.184;2023-03-19T15:54:03;14.80;99.90
27741;DHT22;15134;48.768;9.184;2023-03-19T15:56:29;14.70;99.90
27741;DHT22;15134;48.768;9.184;2023-03-19T15:58:57;14.70;99.90
27741;DHT22;15134;48.768;9.184;2023-03-19T16:01:24;14.70;99.90
27741;DHT22;15134;48.768;9.184;2023-03-19T16:04:21;14.60;99.90
27741;DHT22;15134;48.768;9.184;2023-03-19T16:06:48;14.60;99.90
27741;DHT22;15134;48.768;9.184;2023-03-19T16:09:24;14.60;99.90
27741;DHT22;15134;48.768;9.184;2023-03-19T16:11:51;14.60;99.90
27741;DHT22;15134;48.768;9.184;2023-03-19T16:16:52;14.30;99.90
27741;DHT22;15134;48.768;9.184;2023-03-19T16:22:20;13.80;99.90
27741;DHT22;15134;48.768;9.184;2023-03-19T16:24:47;13.50;99.90
27741;DHT22;15134;48.768;9.184;2023-03-19T16:27:15;13.50;99.90
27741;DHT22;15134;48.768;9.184;2023-03-19T16:29:44;13.50;99.90
27741;DHT22;15134;48.768;9.184;2023-03-19T16:34:40;13.70;99.90
27741;DHT22;15134;48.768;9.184;2023-03-19T16:42:41;13.80;99.90
27741;DHT22;15134;48.768;9.184;2023-03-19T16:47:41;13.60;99.90
27741;DHT22;15134;48.768;9.184;2023-03-19T16:50:07;13.70;99.90
27741;DHT22;15134;48.768;9.184;2023-03-19T16:52:33;13.70;99.90
27741;DHT22;15134;48.768;9.184;2023-03-19T16:55:02;13.60;99.90
27741;DHT22;15134;48.768;9.184;2023-03-19T16:57:28;13.40;99.90
27741;DHT22;15134;48.768;9.184;2023-03-19T16:59:54;13.10;99.90
27741;DHT22;15134;48.768;9.184;2023-03-19T17:02:20;13.00;99.90
27741;DHT22;15134;48.768;9.184;2023-03-19T17:04:46;13.00;99.90
27741;DHT22;15134;48.768;9.184;2023-03-19T17:07:12;13.00;99.90
27741;DHT22;15134;48.768;9.184;2023-03-19T17:09:38;13.00;99.90
27741;DHT22;15134;48.768;9.184;2023-03-19T17:12:05;13.00;99.90
27741;DHT22;15134;48.768;9.184;2023-03-19T17:14:32;12.90;99.90
27741;DHT22;15134;48.768;9.184;2023-03-19T17:16:58;12.90;99.90
27741;DHT22;15134;48.768;9.184;2023-03-19T17:19:27;13.00;99.90
27741;DHT22;15134;48.768;9.184;2023-03-19T17:21:56;13.10;99.90
27741;DHT22;15134;48.768;9.184;2023-03-19T17:24:25;13.20;99.90
27741;DHT22;15134;48.768;9.184;2023-03-19T17:26:52;13.30;99.90
27741;DHT22;15134;48.768;9.184;2023-03-19T17:29:19;13.30;99.90
27741;DHT22;15134;48.768;9.184;2023-03-19T17:31:47;13.30;99.90
27741;DHT22;15134;48.768;9.184;2023-03-19T17:34:17;13.40;99.90
27741;DHT22;15134;48.768;9.184;2023-03-19T17:36:54;13.40;99.90
27741;DHT22;15134;48.768;9.184;2023-03-19T17:39:21;13.40;99.90
27741;DHT22;15134;48.768;9.184;2023-03-19T17:41:48;13.40;99.90
27741;DHT22;15134;48.768;9.184;2023-03-19T17:44:14;13.40;99.90
27741;DHT22;15134;48.768;9.184;2023-03-19T17:46:45;13.40;99.90
27741;DHT22;15134;48.768;9.184;2023-03-19T17:49:21;13.40;99.90
27741;DHT22;15134;48.768;9.184;2023-03-19T17:51:50;13.40;99.90
27741;DHT22;15134;48.768;9.184;2023-03-19T17:54:16;13.30;99.90
27741;DHT22;15134;48.768;9.184;2023-03-19T17:56:42;13.30;99.90
27741;DHT22;15134;48.768;9.184;2023-03-19T17:59:09;13.10;99.90
27741;DHT22;15134;48.768;9.184;2023-03-19T18:01:35;12.90;99.90
27741;DHT22;15134;48.768;9.184;2023-03-19T18:04:03;12.80;99.90
27741;DHT22;15134;48.768;9.184;2023-03-19T18:06:34;12.80;99.90
27741;DHT22;15134;48.768;9.184;2023-03-19T18:09:00;12.80;99.90